KMTW

Manitowoc County Airport

Manitowoc, Wisconsin, USA
METAR KMTW 230056Z AUTO 27006KT 10SM CLR 11/M02 A2997 RMK AO2 SLP172 T01111017
Observed Flight Rules
Oct-23 @ 00:56 UTC (45 minutes ago) Visual Flight Rules
Wind Visibility Clouds
270° at 6 knots 10 miles
  • Clear skies
Temperatures Readings
Current 11°C / 52°F
Dewpoint -2°C / 28°F
Humidity 41%
Altimeter 29.97" Hg
Pressure 1017.2 hPa
Elevation 198
METAR KMTW 230056Z AUTO 27006KT 10SM CLR 11/M02 A2997 RMK AO2 SLP172 T01111017
Observed Flight Rules
Oct-23 @ 00:56 UTC
(45 minutes ago)
VFR
Wind Visibility
270° at 6 knots 10 miles
Clouds
  • Clear skies
Temperature Dewpoint
11°C / 52°F -2°C / 28°F
Humidity Altimeter Pressure
41% 29.97" Hg 1017.2 hPa